Terminal Aerodrome Forecast
Issued by NWS

Home | Current Version | Previous Version | Text Only | Print | Product List | Glossary Off
Versions: 1 2 3 4 5 6 7 8 9 10 11 12 13 14 15 16 17 18 19 20 21 22

278
FTUS43 KICT 291016 AAA
TAFHUT
TAF AMD
KHUT 291016Z 2910/3006 03013KT P6SM VCTS SCT035CB OVC070
      TEMPO 2911/2915 4SM -TSRA BKN020 OVC035CB
     FM291500 07017G22KT P6SM VCSH SCT020 OVC040
     FM292000 10017G22KT P6SM VCSH OVC035=

USA.gov is the U.S. government's official web portal to all federal, state and local government web resources and services.